Time;durP1;ratioP1;P1;durP2;ratioP2;P2;SDS_P1;SDS_P2;PMS_P1;PMS_P2;Temp;Humidity;BMP_temperature;BMP_pressure;BME280_temperature;BME280_humidity;BME280_pressure;Samples;Min_cycle;Max_cycle;Signal;HPM_P1;HPM_P2
2021/08/05 00:00:53;;;;;;;6.78;4.97;;;;;;;-144.51;100.00;69251.94;4997216;28;20046;-72
2021/08/05 00:03:38;;;;;;;9.73;6.15;;;;;;;-144.51;100.00;69251.94;4998894;28;20042;-71
2021/08/05 00:06:23;;;;;;;12.35;6.18;;;;;;;-144.51;100.00;69251.94;4998874;28;20047;-71
2021/08/05 00:09:08;;;;;;;10.27;5.65;;;;;;;-144.51;100.00;69251.94;4998841;28;20050;-71
2021/08/05 00:11:53;;;;;;;11.60;5.10;;;;;;;-144.51;100.00;69251.94;4998442;28;20046;-71
2021/08/05 00:14:41;;;;;;;10.23;6.13;;;;;;;-144.51;100.00;69251.94;5002730;28;20050;-71
2021/08/05 00:17:26;;;;;;;11.50;5.70;;;;;;;-144.51;100.00;69251.94;5002837;28;20042;-71
2021/08/05 00:20:11;;;;;;;8.20;5.05;;;;;;;-144.51;100.00;69251.94;5002609;28;20050;-71
2021/08/05 00:22:58;;;;;;;9.07;4.45;;;;;;;-144.51;100.00;69251.94;5002663;28;20042;-72
2021/08/05 00:25:43;;;;;;;7.20;3.80;;;;;;;-144.51;100.00;69251.94;4998628;28;20050;-71
2021/08/05 00:28:28;;;;;;;4.57;2.75;;;;;;;-144.51;100.00;69251.94;5002615;28;20404;-71
2021/08/05 00:31:15;;;;;;;5.10;2.20;;;;;;;-144.51;100.00;69251.94;4999790;28;20042;-71
2021/08/05 00:34:00;;;;;;;5.75;2.60;;;;;;;-144.51;100.00;69251.94;5002431;28;20483;-71
2021/08/05 00:36:46;;;;;;;3.22;1.88;;;;;;;-144.51;100.00;69251.94;4987539;28;20050;-71
2021/08/05 00:39:31;;;;;;;3.97;1.60;;;;;;;-144.51;100.00;69251.94;5002413;28;20439;-71
2021/08/05 00:42:16;;;;;;;3.75;1.80;;;;;;;-144.51;100.00;69251.94;4996842;28;20419;-71
2021/08/05 00:45:01;;;;;;;2.70;1.95;;;;;;;-144.51;100.00;69251.94;4987571;28;20455;-71
2021/08/05 00:47:46;;;;;;;6.00;1.90;;;;;;;-144.51;100.00;69251.94;4987423;28;20050;-71
2021/08/05 00:50:31;;;;;;;3.60;2.22;;;;;;;-144.51;100.00;69251.94;5000570;28;20046;-72
2021/08/05 00:53:16;;;;;;;3.13;2.45;;;;;;;-144.51;100.00;69251.94;4987385;28;20042;-71
2021/08/05 00:56:01;;;;;;;2.90;1.70;;;;;;;-144.51;100.00;69251.94;4987358;28;20046;-71
2021/08/05 00:58:46;;;;;;;2.05;1.50;;;;;;;-144.51;100.00;69251.94;5001950;28;20046;-72
2021/08/05 01:01:39;;;;;;;5.47;1.80;;;;;;;-144.51;100.00;69251.94;4983939;28;20050;-71
2021/08/05 01:04:24;;;;;;;3.58;1.80;;;;;;;-144.51;100.00;69251.94;5000863;28;20037;-71
2021/08/05 01:07:12;;;;;;;4.47;1.65;;;;;;;-144.51;100.00;69251.94;4987158;28;20500;-71
2021/08/05 01:10:14;;;;;;;4.38;2.40;;;;;;;-144.51;100.00;69251.94;5000914;28;20427;-71
2021/08/05 01:13:04;;;;;;;4.95;1.88;;;;;;;-144.51;100.00;69251.94;4986883;28;20046;-71
2021/08/05 01:15:51;;;;;;;4.22;1.65;;;;;;;-144.51;100.00;69251.94;4995279;28;20038;-71
2021/08/05 01:18:37;;;;;;;4.18;1.73;;;;;;;-144.51;100.00;69251.94;4986759;28;20404;-71
2021/08/05 01:21:50;;;;;;;4.32;1.90;;;;;;;-144.51;100.00;69251.94;4994836;28;20412;-71
2021/08/05 01:24:38;;;;;;;1.58;1.45;;;;;;;-144.51;100.00;69251.94;4985836;28;20397;-71
2021/08/05 01:27:26;;;;;;;3.35;1.60;;;;;;;-144.51;100.00;69251.94;4995052;28;20664;-72
2021/08/05 01:30:11;;;;;;;3.95;1.75;;;;;;;-144.51;100.00;69251.94;4994907;28;20042;-71
2021/08/05 01:32:58;;;;;;;3.33;1.80;;;;;;;-144.51;100.00;69251.94;4994888;28;20051;-71
2021/08/05 01:35:43;;;;;;;3.03;2.03;;;;;;;-144.51;100.00;69251.94;4986521;28;20042;-71
2021/08/05 01:38:33;;;;;;;3.38;1.40;;;;;;;-144.51;100.00;69251.94;4986628;28;20054;-71
2021/08/05 01:41:19;;;;;;;5.85;1.98;;;;;;;-144.51;100.00;69251.94;4997460;28;20050;-71
2021/08/05 01:44:09;;;;;;;2.47;1.55;;;;;;;-144.51;100.00;69251.94;5001263;28;20043;-71
2021/08/05 01:46:55;;;;;;;2.35;1.40;;;;;;;-144.51;100.00;69251.94;4986341;28;20034;-71
2021/08/05 01:49:41;;;;;;;1.88;1.20;;;;;;;-144.51;100.00;69251.94;4994657;28;20050;-71
2021/08/05 01:52:26;;;;;;;2.63;1.58;;;;;;;-144.51;100.00;69251.94;4980381;28;20488;-70
2021/08/05 01:55:13;;;;;;;3.10;1.55;;;;;;;-144.51;100.00;69251.94;5000095;28;20430;-71
2021/08/05 01:57:58;;;;;;;2.33;1.50;;;;;;;-144.51;100.00;69251.94;5000096;28;20420;-71
2021/08/05 02:00:44;;;;;;;1.52;0.88;;;;;;;-144.51;100.00;69251.94;4998913;28;20050;-71
2021/08/05 02:03:29;;;;;;;2.65;1.35;;;;;;;-144.51;100.00;69251.94;4986172;28;20400;-72
2021/08/05 02:06:19;;;;;;;1.70;1.33;;;;;;;-144.51;100.00;69251.94;4999694;28;20050;-71
2021/08/05 02:09:14;;;;;;;2.13;1.20;;;;;;;-144.51;100.00;69251.94;4986062;28;20046;-71
2021/08/05 02:12:00;;;;;;;3.45;1.35;;;;;;;-144.51;100.00;69251.94;4994997;28;20038;-71
2021/08/05 02:14:45;;;;;;;2.70;1.25;;;;;;;-144.51;100.00;69251.94;4985878;28;20042;-71
2021/08/05 02:17:37;;;;;;;3.08;1.10;;;;;;;-144.51;100.00;69251.94;4999649;28;20046;-71
2021/08/05 02:20:23;;;;;;;2.65;1.15;;;;;;;-144.51;100.00;69251.94;5000266;28;20432;-72
2021/08/05 02:23:11;;;;;;;3.55;0.82;;;;;;;-144.51;100.00;69251.94;4993918;28;20046;-71
2021/08/05 02:25:58;;;;;;;1.00;0.65;;;;;;;-144.51;100.00;69251.94;4981312;28;20043;-71
2021/08/05 02:28:42;;;;;;;0.80;0.38;;;;;;;-144.51;100.00;69251.94;4985603;28;20046;-70
2021/08/05 02:31:28;;;;;;;2.67;0.60;;;;;;;-144.51;100.00;69251.94;4993814;28;20042;-71
2021/08/05 02:34:15;;;;;;;0.85;0.50;;;;;;;-144.51;100.00;69251.94;4984675;28;20046;-71
2021/08/05 02:36:59;;;;;;;1.25;0.43;;;;;;;-144.51;100.00;69251.94;4999164;28;20105;-70
2021/08/05 02:39:45;;;;;;;0.40;0.30;;;;;;;-144.51;100.00;69251.94;4993272;28;20050;-70
2021/08/05 02:42:30;;;;;;;3.42;0.40;;;;;;;-144.51;100.00;69251.94;4994151;28;20046;-71
2021/08/05 02:45:16;;;;;;;0.90;0.52;;;;;;;-144.51;100.00;69251.94;4985250;28;20050;-71
2021/08/05 02:48:04;;;;;;;0.80;0.50;;;;;;;-144.51;100.00;69251.94;5000109;28;20076;-70
2021/08/05 02:50:50;;;;;;;0.50;0.50;;;;;;;-144.51;100.00;69251.94;4993272;28;20045;-71
2021/08/05 02:53:35;;;;;;;1.63;0.70;;;;;;;-144.51;100.00;69251.94;4999863;28;20042;-71
2021/08/05 02:56:20;;;;;;;0.98;0.60;;;;;;;-144.51;100.00;69251.94;4999939;28;20042;-71
2021/08/05 02:59:05;;;;;;;2.55;0.57;;;;;;;-144.51;100.00;69251.94;4993322;28;20042;-70
2021/08/05 03:01:50;;;;;;;7.15;0.70;;;;;;;-144.51;100.00;69251.94;4995582;28;20046;-71
2021/08/05 03:04:36;;;;;;;1.10;0.50;;;;;;;-144.51;100.00;69251.94;4999643;28;20038;-71
2021/08/05 03:07:21;;;;;;;2.05;0.40;;;;;;;-144.51;100.00;69251.94;4999778;28;20050;-71
2021/08/05 03:10:07;;;;;;;1.23;0.52;;;;;;;-144.51;100.00;69251.94;4999574;28;20512;-71
2021/08/05 03:12:52;;;;;;;0.32;0.30;;;;;;;-144.51;100.00;69251.94;4999658;28;20054;-71
2021/08/05 03:15:37;;;;;;;0.68;0.30;;;;;;;-144.51;100.00;69251.94;4999495;28;20046;-71
2021/08/05 03:18:22;;;;;;;0.30;0.30;;;;;;;-144.51;100.00;69251.94;4999572;28;20042;-72
2021/08/05 03:21:08;;;;;;;0.50;0.30;;;;;;;-144.51;100.00;69251.94;4997026;28;20046;-71
2021/08/05 03:23:52;;;;;;;0.32;0.20;;;;;;;-144.51;100.00;69251.94;4998005;28;20034;-71
2021/08/05 03:26:38;;;;;;;0.28;0.28;;;;;;;-144.51;100.00;69251.94;4992962;28;20054;-71
2021/08/05 03:29:23;;;;;;;0.10;0.10;;;;;;;-144.51;100.00;69251.94;4999404;28;20062;-71
2021/08/05 03:32:08;;;;;;;3.50;0.20;;;;;;;-144.51;100.00;69251.94;4994234;28;20042;-71
2021/08/05 03:34:52;;;;;;;;;;;;;;;-144.51;100.00;69251.94;4999640;28;20400;-71
2021/08/05 03:37:37;;;;;;;0.30;0.25;;;;;;;-144.51;100.00;69251.94;4999220;28;19913;-71
2021/08/05 03:40:22;;;;;;;0.50;0.30;;;;;;;-144.51;100.00;69251.94;4998971;28;20516;-71
2021/08/05 03:43:06;;;;;;;0.17;0.17;;;;;;;-144.51;100.00;69251.94;4999319;28;20408;-71
2021/08/05 03:45:52;;;;;;;0.28;0.20;;;;;;;-144.51;100.00;69251.94;4998280;28;20050;-71
2021/08/05 03:48:37;;;;;;;0.10;0.10;;;;;;;-144.51;100.00;69251.94;4998973;28;20042;-71
2021/08/05 03:51:22;;;;;;;0.17;0.17;;;;;;;-144.51;100.00;69251.94;4996137;28;20054;-72
2021/08/05 03:54:06;;;;;;;0.52;0.30;;;;;;;-144.51;100.00;69251.94;4998909;28;20039;-71
2021/08/05 03:56:51;;;;;;;0.20;0.20;;;;;;;-144.51;100.00;69251.94;4998999;28;20046;-71
2021/08/05 03:59:37;;;;;;;0.20;0.20;;;;;;;-144.51;100.00;69251.94;4998879;28;20050;-72
2021/08/05 04:02:22;;;;;;;0.80;0.20;;;;;;;-144.51;100.00;69251.94;4993254;28;20050;-71
2021/08/05 04:05:08;;;;;;;0.28;0.20;;;;;;;-144.51;100.00;69251.94;4998817;28;20043;-72
2021/08/05 04:07:53;;;;;;;0.20;0.20;;;;;;;-144.51;100.00;69251.94;4998947;28;20054;-71
2021/08/05 04:10:38;;;;;;;0.30;0.20;;;;;;;-144.51;100.00;69251.94;4997803;28;20050;-70
2021/08/05 04:13:23;;;;;;;0.75;0.40;;;;;;;-144.51;100.00;69251.94;4998777;28;20050;-71
2021/08/05 04:16:08;;;;;;;0.70;0.50;;;;;;;-144.51;100.00;69251.94;4998763;28;20050;-71
2021/08/05 04:18:53;;;;;;;2.45;0.55;;;;;;;-144.51;100.00;69251.94;4998836;28;20050;-72
2021/08/05 04:21:38;;;;;;;1.10;0.47;;;;;;;-144.51;100.00;69251.94;4995124;28;20424;-71
2021/08/05 04:24:23;;;;;;;0.55;0.40;;;;;;;-144.51;100.00;69251.94;4998565;28;20046;-72
2021/08/05 04:27:08;;;;;;;1.40;0.63;;;;;;;-144.51;100.00;69251.94;4998722;28;20035;-71
2021/08/05 04:29:53;;;;;;;0.65;0.22;;;;;;;-144.51;100.00;69251.94;4998777;28;20050;-71
2021/08/05 04:32:39;;;;;;;0.50;0.30;;;;;;;-144.51;100.00;69251.94;4992228;28;20042;-71
2021/08/05 04:35:24;;;;;;;3.70;0.30;;;;;;;-144.51;100.00;69251.94;4998647;28;20054;-70
2021/08/05 04:38:10;;;;;;;0.73;0.30;;;;;;;-144.51;100.00;69251.94;4998605;28;20050;-71
2021/08/05 04:40:55;;;;;;;0.17;0.17;;;;;;;-144.51;100.00;69251.94;4996936;28;20046;-72
2021/08/05 04:43:40;;;;;;;0.60;0.20;;;;;;;-144.51;100.00;69251.94;4998556;28;20034;-71
2021/08/05 04:46:26;;;;;;;0.20;0.13;;;;;;;-144.51;100.00;69251.94;4998544;28;20576;-72
2021/08/05 04:49:11;;;;;;;2.28;0.30;;;;;;;-144.51;100.00;69251.94;4998582;28;20043;-71
2021/08/05 04:51:56;;;;;;;2.38;0.30;;;;;;;-144.51;100.00;69251.94;4994051;28;20419;-70
2021/08/05 04:54:42;;;;;;;2.05;0.20;;;;;;;-144.51;100.00;69251.94;4998389;28;20396;-71
2021/08/05 04:57:27;;;;;;;;;;;;;;;-144.51;100.00;69251.94;5002124;28;20046;-72
2021/08/05 05:00:12;;;;;;;0.10;0.10;;;;;;;-144.51;100.00;69251.94;5002101;28;19913;-71
2021/08/05 05:02:57;;;;;;;0.65;0.20;;;;;;;-144.51;100.00;69251.94;5002019;28;20050;-71
2021/08/05 05:05:42;;;;;;;1.02;0.20;;;;;;;-144.51;100.00;69251.94;5001918;28;20046;-72
2021/08/05 05:08:27;;;;;;;1.65;0.15;;;;;;;-144.51;100.00;69251.94;5002131;28;20038;-71
2021/08/05 05:11:12;;;;;;;;;;;;;;;-144.51;100.00;69251.94;4999687;28;20042;-71
2021/08/05 05:13:57;;;;;;;0.52;0.30;;;;;;;-144.51;100.00;69251.94;5001779;28;20323;-70
2021/08/05 05:16:41;;;;;;;0.50;0.20;;;;;;;-144.51;100.00;69251.94;5001676;28;20042;-72
2021/08/05 05:19:27;;;;;;;2.85;0.35;;;;;;;-144.51;100.00;69251.94;4991223;28;20062;-69
2021/08/05 05:22:12;;;;;;;0.22;0.15;;;;;;;-144.51;100.00;69251.94;4983903;28;20042;-68
2021/08/05 05:24:58;;;;;;;1.02;0.25;;;;;;;-144.51;100.00;69251.94;4976554;28;20042;-69
2021/08/05 05:27:43;;;;;;;1.48;0.28;;;;;;;-144.51;100.00;69251.94;4991634;28;20413;-67
2021/08/05 05:30:29;;;;;;;8.88;0.65;;;;;;;-144.51;100.00;69251.94;4992740;28;20050;-68
2021/08/05 05:33:14;;;;;;;4.20;0.32;;;;;;;-144.51;100.00;69251.94;4998757;28;20046;-69
2021/08/05 05:35:59;;;;;;;7.78;0.32;;;;;;;-144.51;100.00;69251.94;4980660;28;20043;-69
2021/08/05 05:38:44;;;;;;;1.60;0.17;;;;;;;-144.51;100.00;69251.94;4974125;28;20501;-71
2021/08/05 05:41:29;;;;;;;2.65;0.25;;;;;;;-144.51;100.00;69251.94;4988279;28;20034;-69
2021/08/05 05:44:14;;;;;;;0.17;0.15;;;;;;;-144.51;100.00;69251.94;4978510;28;20416;-69
2021/08/05 05:46:59;;;;;;;2.10;0.25;;;;;;;-144.51;100.00;69251.94;4984164;28;20042;-68
2021/08/05 05:49:45;;;;;;;1.25;0.30;;;;;;;-144.51;100.00;69251.94;4995889;28;20042;-68
2021/08/05 05:52:30;;;;;;;20.50;2.97;;;;;;;-144.51;100.00;69251.94;4979505;28;20038;-69
2021/08/05 05:55:16;;;;;;;29.70;1.80;;;;;;;-144.51;100.00;69251.94;4999895;28;20034;-69
2021/08/05 05:58:01;;;;;;;19.77;1.35;;;;;;;-144.51;100.00;69251.94;4998858;28;20489;-70
2021/08/05 06:00:46;;;;;;;13.07;0.80;;;;;;;-144.51;100.00;69251.94;4999004;28;20050;-69
2021/08/05 06:03:31;;;;;;;10.20;1.10;;;;;;;-144.51;100.00;69251.94;5000660;28;20046;-70
2021/08/05 06:06:16;;;;;;;2.20;0.40;;;;;;;-144.51;100.00;69251.94;4988349;28;20038;-70
2021/08/05 06:09:02;;;;;;;7.40;0.43;;;;;;;-144.51;100.00;69251.94;4982280;28;20058;-70
2021/08/05 06:11:47;;;;;;;3.05;0.43;;;;;;;-144.51;100.00;69251.94;4995859;28;20042;-70
2021/08/05 06:14:32;;;;;;;3.03;0.80;;;;;;;-144.51;100.00;69251.94;4995424;28;20038;-69
2021/08/05 06:17:17;;;;;;;2.33;0.52;;;;;;;-144.51;100.00;69251.94;4992237;28;20042;-68
2021/08/05 06:20:03;;;;;;;1.50;0.25;;;;;;;-144.51;100.00;69251.94;4997718;28;20046;-69
2021/08/05 06:22:49;;;;;;;0.90;0.15;;;;;;;-144.51;100.00;69251.94;4988366;28;20047;-69
2021/08/05 06:25:34;;;;;;;2.88;0.17;;;;;;;-144.51;100.00;69251.94;4976011;28;20043;-69
2021/08/05 06:28:19;;;;;;;1.45;0.13;;;;;;;-144.51;100.00;69251.94;4992272;28;20408;-69
2021/08/05 06:31:04;;;;;;;1.25;0.40;;;;;;;-144.51;100.00;69251.94;4987955;28;20051;-69
2021/08/05 06:33:51;;;;;;;0.77;0.20;;;;;;;-144.51;100.00;69251.94;4980430;28;20046;-70
2021/08/05 06:36:36;;;;;;;3.90;0.17;;;;;;;-144.51;100.00;69251.94;4995135;28;20043;-70
2021/08/05 06:39:21;;;;;;;4.60;0.20;;;;;;;-144.51;100.00;69251.94;4987876;28;20038;-69
2021/08/05 06:42:06;;;;;;;0.17;0.10;;;;;;;-144.51;100.00;69251.94;4993936;28;20046;-70
2021/08/05 06:44:51;;;;;;;0.52;0.10;;;;;;;-144.51;100.00;69251.94;4997703;28;20034;-70
2021/08/05 06:47:49;;;;;;;0.30;0.10;;;;;;;-144.51;100.00;69251.94;4994360;28;20038;-70
2021/08/05 06:50:35;;;;;;;0.45;0.20;;;;;;;-144.51;100.00;69251.94;4987751;28;20042;-71
2021/08/05 06:53:20;;;;;;;0.35;0.10;;;;;;;-144.51;100.00;69251.94;4999693;28;20042;-70
2021/08/05 06:56:05;;;;;;;0.52;0.10;;;;;;;-144.51;100.00;69251.94;4995271;28;20038;-68
2021/08/05 06:58:50;;;;;;;2.58;0.20;;;;;;;-144.51;100.00;69251.94;4993380;28;20492;-70
2021/08/05 07:01:35;;;;;;;0.95;0.10;;;;;;;-144.51;100.00;69251.94;4995736;28;20416;-69
2021/08/05 07:04:20;;;;;;;0.65;0.10;;;;;;;-144.51;100.00;69251.94;4989779;28;20034;-70
2021/08/05 07:07:05;;;;;;;0.20;0.10;;;;;;;-144.51;100.00;69251.94;4999240;28;20043;-70
2021/08/05 07:09:50;;;;;;;0.20;0.10;;;;;;;-144.51;100.00;69251.94;4999331;28;20508;-70
2021/08/05 07:12:35;;;;;;;0.85;0.10;;;;;;;-144.51;100.00;69251.94;4992801;28;20034;-70
2021/08/05 07:15:20;;;;;;;0.10;0.10;;;;;;;-144.51;100.00;69251.94;4993610;28;20042;-71
2021/08/05 07:18:05;;;;;;;0.45;0.10;;;;;;;-144.51;100.00;69251.94;4994837;28;20034;-70
2021/08/05 07:20:50;;;;;;;0.20;0.10;;;;;;;-144.51;100.00;69251.94;4993915;28;20054;-70
2021/08/05 07:23:35;;;;;;;7.47;0.20;;;;;;;-144.51;100.00;69251.94;4993977;28;20034;-71
2021/08/05 07:26:20;;;;;;;36.13;2.05;;;;;;;-144.51;100.00;69251.94;4993542;28;20042;-70
2021/08/05 07:29:05;;;;;;;17.48;2.50;;;;;;;-144.51;100.00;69251.94;4993271;28;20054;-69
2021/08/05 07:31:49;;;;;;;10.10;1.20;;;;;;;-144.51;100.00;69251.94;4992267;28;20117;-69
2021/08/05 07:34:35;;;;;;;2.50;0.30;;;;;;;-144.51;100.00;69251.94;4992197;28;20042;-70
2021/08/05 07:37:20;;;;;;;9.50;0.75;;;;;;;-144.51;100.00;69251.94;4996383;28;20042;-68
2021/08/05 07:40:06;;;;;;;1.90;0.40;;;;;;;-144.51;100.00;69251.94;4994359;28;20038;-69
2021/08/05 07:42:51;;;;;;;4.88;0.85;;;;;;;-144.51;100.00;69251.94;4992122;28;20038;-69
2021/08/05 07:45:36;;;;;;;0.30;0.20;;;;;;;-144.51;100.00;69251.94;4988157;28;20038;-69
2021/08/05 07:48:21;;;;;;;1.55;0.30;;;;;;;-144.51;100.00;69251.94;4993899;28;20042;-69
2021/08/05 07:51:07;;;;;;;3.75;0.20;;;;;;;-144.51;100.00;69251.94;4991860;28;20042;-68
2021/08/05 07:53:53;;;;;;;2.75;0.20;;;;;;;-144.51;100.00;69251.94;4980829;28;20038;-70
2021/08/05 07:56:38;;;;;;;1.42;0.30;;;;;;;-144.51;100.00;69251.94;4993864;28;20042;-69
2021/08/05 07:59:23;;;;;;;3.92;0.35;;;;;;;-144.51;100.00;69251.94;4992424;28;20038;-69
2021/08/05 08:02:08;;;;;;;0.88;0.30;;;;;;;-144.51;100.00;69251.94;4991228;28;20042;-69
2021/08/05 08:04:53;;;;;;;0.80;0.25;;;;;;;-144.51;100.00;69251.94;4994265;28;20030;-69
2021/08/05 08:07:38;;;;;;;0.68;0.22;;;;;;;-144.51;100.00;69251.94;4986308;28;20043;-69
2021/08/05 08:10:23;;;;;;;0.63;0.30;;;;;;;-144.51;100.00;69251.94;4991882;28;20039;-69
2021/08/05 08:13:08;;;;;;;6.38;0.32;;;;;;;-144.51;100.00;69251.94;4996542;28;20047;-67
2021/08/05 08:15:55;;;;;;;1.02;0.55;;;;;;;-144.51;100.00;69251.94;4985401;28;20042;-69
2021/08/05 08:18:40;;;;;;;7.60;0.63;;;;;;;-144.51;100.00;69251.94;4992663;28;20042;-69
2021/08/05 08:21:25;;;;;;;2.28;0.40;;;;;;;-144.51;100.00;69251.94;4994337;28;20034;-69
2021/08/05 08:24:11;;;;;;;3.55;0.52;;;;;;;-144.51;100.00;69251.94;4993064;28;20054;-68
2021/08/05 08:26:56;;;;;;;4.63;1.63;;;;;;;-144.51;100.00;69251.94;4971874;28;20512;-68
2021/08/05 08:29:41;;;;;;;5.18;1.48;;;;;;;-144.51;100.00;69251.94;4966113;28;20505;-68
2021/08/05 08:32:27;;;;;;;4.93;1.83;;;;;;;-144.51;100.00;69251.94;4972365;28;20417;-68
2021/08/05 08:35:13;;;;;;;3.45;1.23;;;;;;;-144.51;100.00;69251.94;4982651;28;20035;-69
2021/08/05 08:37:58;;;;;;;2.05;0.80;;;;;;;-144.51;100.00;69251.94;4979195;28;20043;-69
2021/08/05 08:40:43;;;;;;;6.20;1.50;;;;;;;-144.51;100.00;69251.94;4977865;28;20047;-68
2021/08/05 08:43:29;;;;;;;2.97;0.70;;;;;;;-144.51;100.00;69251.94;4969998;28;20513;-69
2021/08/05 08:46:20;;;;;;;2.20;1.00;;;;;;;-144.51;100.00;69251.94;4978101;28;20428;-68
2021/08/05 08:49:07;;;;;;;7.50;1.58;;;;;;;-144.51;100.00;69251.94;4982447;28;20042;-68
2021/08/05 08:51:54;;;;;;;6.57;0.80;;;;;;;-144.51;100.00;69251.94;4966538;28;20043;-70
2021/08/05 08:54:44;;;;;;;3.45;1.00;;;;;;;-144.51;100.00;69251.94;4982390;28;20485;-70
2021/08/05 08:57:31;;;;;;;4.07;0.70;;;;;;;-144.51;100.00;69251.94;4958127;28;20038;-70
2021/08/05 09:00:17;;;;;;;2.40;0.50;;;;;;;-144.51;100.00;69251.94;4956202;28;20043;-69
2021/08/05 09:03:03;;;;;;;3.25;0.60;;;;;;;-144.51;100.00;69251.94;4979004;28;20046;-69
2021/08/05 09:05:48;;;;;;;3.92;0.68;;;;;;;-144.51;100.00;69251.94;4976909;28;20039;-69
2021/08/05 09:08:37;;;;;;;6.57;0.70;;;;;;;-144.51;100.00;69251.94;4980757;28;20492;-69
2021/08/05 09:11:22;;;;;;;4.85;0.60;;;;;;;-144.51;100.00;69251.94;4978117;28;20046;-68
2021/08/05 09:14:07;;;;;;;3.10;0.82;;;;;;;-144.51;100.00;69251.94;4974149;28;20034;-69
2021/08/05 09:16:52;;;;;;;3.90;0.80;;;;;;;-144.51;100.00;69251.94;4980941;28;20031;-68
2021/08/05 09:19:40;;;;;;;1.42;0.40;;;;;;;-144.51;100.00;69251.94;4981872;28;20051;-69
2021/08/05 09:22:51;;;;;;;3.53;0.70;;;;;;;-144.51;100.00;69251.94;4975990;28;20051;-69
2021/08/05 09:25:37;;;;;;;5.40;0.60;;;;;;;-144.51;100.00;69251.94;4983609;28;20038;-69
2021/08/05 09:28:22;;;;;;;1.88;0.57;;;;;;;-144.51;100.00;69251.94;4997006;28;20046;-69
2021/08/05 09:31:15;;;;;;;1.45;1.00;;;;;;;-144.51;100.00;69251.94;4999085;28;20042;-69
2021/08/05 09:34:15;;;;;;;2.63;0.50;;;;;;;-144.51;100.00;69251.94;4998087;28;20046;-69
2021/08/05 09:37:02;;;;;;;2.47;0.52;;;;;;;-144.51;100.00;69251.94;4995941;28;20050;-69
2021/08/05 09:39:47;;;;;;;1.63;0.43;;;;;;;-144.51;100.00;69251.94;4996201;28;20047;-67
2021/08/05 09:42:32;;;;;;;5.38;0.75;;;;;;;-144.51;100.00;69251.94;4995046;28;20504;-69
2021/08/05 09:45:31;;;;;;;2.40;0.50;;;;;;;-144.51;100.00;69251.94;4995807;28;20034;-68
2021/08/05 09:48:36;;;;;;;2.03;0.60;;;;;;;-144.51;100.00;69251.94;4999184;28;20038;-69
2021/08/05 09:51:21;;;;;;;0.63;0.40;;;;;;;-144.51;100.00;69251.94;4998014;28;20042;-68
2021/08/05 09:54:06;;;;;;;1.95;0.40;;;;;;;-144.51;100.00;69251.94;5000932;28;20042;-69
2021/08/05 09:56:55;;;;;;;1.08;0.40;;;;;;;-144.51;100.00;69251.94;5001010;28;20034;-69
2021/08/05 09:59:57;;;;;;;1.98;0.40;;;;;;;-144.51;100.00;69251.94;4996418;28;20038;-69
2021/08/05 10:02:43;;;;;;;1.08;0.55;;;;;;;-144.51;100.00;69251.94;4990385;28;20050;-68
2021/08/05 10:05:27;;;;;;;1.88;0.43;;;;;;;-144.51;100.00;69251.94;5000848;28;20038;-67
2021/08/05 10:08:13;;;;;;;1.25;0.50;;;;;;;-144.51;100.00;69251.94;5000753;28;20039;-69
2021/08/05 10:10:57;;;;;;;1.75;0.47;;;;;;;-144.51;100.00;69251.94;4998763;28;20043;-68
2021/08/05 10:13:42;;;;;;;1.05;0.30;;;;;;;-144.51;100.00;69251.94;4994730;28;20046;-69
2021/08/05 10:16:39;;;;;;;0.95;0.40;;;;;;;-144.51;100.00;69251.94;4992833;28;20038;-69
2021/08/05 10:19:24;;;;;;;1.90;0.40;;;;;;;-144.51;100.00;69251.94;4998249;28;20046;-69
2021/08/05 10:22:13;;;;;;;2.47;0.40;;;;;;;-144.51;100.00;69251.94;4992393;28;20520;-69
2021/08/05 10:24:58;;;;;;;3.50;0.70;;;;;;;-144.51;100.00;69251.94;4998378;28;20034;-69
2021/08/05 10:27:43;;;;;;;3.72;0.40;;;;;;;-144.51;100.00;69251.94;4999160;28;20046;-69
2021/08/05 10:30:29;;;;;;;0.68;0.35;;;;;;;-144.51;100.00;69251.94;4987019;28;20050;-68
2021/08/05 10:33:14;;;;;;;1.13;0.40;;;;;;;-144.51;100.00;69251.94;4994626;28;20038;-69
2021/08/05 10:36:01;;;;;;;1.27;0.20;;;;;;;-144.51;100.00;69251.94;4974161;28;20046;-68
2021/08/05 10:38:45;;;;;;;1.10;0.47;;;;;;;-144.51;100.00;69251.94;4996390;28;20408;-68
2021/08/05 10:41:31;;;;;;;1.40;0.30;;;;;;;-144.51;100.00;69251.94;4994889;28;20046;-69
2021/08/05 10:44:16;;;;;;;0.57;0.20;;;;;;;-144.51;100.00;69251.94;4999956;28;20034;-69
2021/08/05 10:47:02;;;;;;;0.20;0.20;;;;;;;-144.51;100.00;69251.94;4996900;28;20415;-69
2021/08/05 10:49:51;;;;;;;0.68;0.68;;;;;;;-144.51;100.00;69251.94;4999969;28;20042;-69
2021/08/05 10:52:36;;;;;;;1.55;0.22;;;;;;;-144.51;100.00;69251.94;4993665;28;20042;-68
2021/08/05 10:55:26;;;;;;;0.55;0.20;;;;;;;-144.51;100.00;69251.94;4996304;28;20042;-68
2021/08/05 10:58:20;;;;;;;0.63;0.22;;;;;;;-144.51;100.00;69251.94;4999811;28;20038;-70
2021/08/05 11:01:05;;;;;;;0.88;0.40;;;;;;;-144.51;100.00;69251.94;4997551;28;20042;-68
2021/08/05 11:03:49;;;;;;;2.40;0.30;;;;;;;-144.51;100.00;69251.94;4996087;28;20500;-70
2021/08/05 11:06:34;;;;;;;3.15;0.30;;;;;;;-144.51;100.00;69251.94;4994219;28;20042;-69
2021/08/05 11:09:28;;;;;;;0.35;0.30;;;;;;;-144.51;100.00;69251.94;4997819;28;20500;-69
2021/08/05 11:12:38;;;;;;;0.35;0.20;;;;;;;-144.51;100.00;69251.94;4994194;28;20042;-69
2021/08/05 11:15:27;;;;;;;1.88;0.38;;;;;;;-144.51;100.00;69251.94;4992703;28;20055;-69
2021/08/05 11:18:15;;;;;;;1.92;0.73;;;;;;;-144.51;100.00;69251.94;4999391;28;20038;-69
2021/08/05 11:21:00;;;;;;;3.35;0.45;;;;;;;-144.51;100.00;69251.94;4987852;28;20042;-69
2021/08/05 11:23:45;;;;;;;1.23;0.43;;;;;;;-144.51;100.00;69251.94;4997619;28;20039;-69
2021/08/05 11:26:30;;;;;;;0.75;0.30;;;;;;;-144.51;100.00;69251.94;4992467;28;20042;-68
2021/08/05 11:29:27;;;;;;;2.72;0.40;;;;;;;-144.51;100.00;69251.94;4998764;28;20242;-69
2021/08/05 11:32:21;;;;;;;2.10;0.70;;;;;;;-144.51;100.00;69251.94;4984035;28;20054;-69
2021/08/05 11:35:08;;;;;;;0.47;0.13;;;;;;;-144.51;100.00;69251.94;4994646;28;20035;-68
2021/08/05 11:38:10;;;;;;;6.32;0.40;;;;;;;-144.51;100.00;69251.94;4987961;28;20408;-70
2021/08/05 11:40:54;;;;;;;1.00;0.30;;;;;;;-144.51;100.00;69251.94;4991816;28;20767;-69
2021/08/05 11:43:39;;;;;;;0.65;0.17;;;;;;;-144.51;100.00;69251.94;4987320;28;20500;-69
2021/08/05 11:46:30;;;;;;;0.47;0.25;;;;;;;-144.51;100.00;69251.94;4984525;28;20039;-69
2021/08/05 11:49:37;;;;;;;1.02;0.63;;;;;;;-144.51;100.00;69251.94;4993079;28;20034;-69
2021/08/05 11:52:23;;;;;;;2.28;0.20;;;;;;;-144.51;100.00;69251.94;4978291;28;20042;-68
2021/08/05 11:55:13;;;;;;;1.88;0.95;;;;;;;-144.51;100.00;69251.94;4995392;28;20042;-69
2021/08/05 11:58:01;;;;;;;1.95;0.30;;;;;;;-144.51;100.00;69251.94;4989086;28;20411;-68
2021/08/05 12:00:45;;;;;;;0.43;0.20;;;;;;;-144.51;100.00;69251.94;4992441;28;20050;-68
2021/08/05 12:03:31;;;;;;;1.23;0.20;;;;;;;-144.51;100.00;69251.94;4983355;28;20050;-69
2021/08/05 12:06:24;;;;;;;1.23;0.20;;;;;;;-144.51;100.00;69251.94;4993395;28;20038;-69
2021/08/05 12:09:14;;;;;;;0.52;0.20;;;;;;;-144.51;100.00;69251.94;4996900;28;20054;-69
2021/08/05 12:11:59;;;;;;;3.13;0.43;;;;;;;-144.51;100.00;69251.94;4984575;28;20451;-68
2021/08/05 12:15:03;;;;;;;0.75;0.38;;;;;;;-144.51;100.00;69251.94;4994505;28;20046;-68
2021/08/05 12:17:51;;;;;;;0.28;0.15;;;;;;;-144.51;100.00;69251.94;5001718;28;20046;-68
2021/08/05 12:20:38;;;;;;;1.48;0.43;;;;;;;-144.51;100.00;69251.94;4999060;28;20045;-68
2021/08/05 12:23:33;;;;;;;1.02;0.32;;;;;;;-144.51;100.00;69251.94;4997675;28;20046;-69
2021/08/05 12:26:21;;;;;;;4.03;0.57;;;;;;;-144.51;100.00;69251.94;4996984;28;20034;-70
2021/08/05 12:29:10;;;;;;;1.20;0.40;;;;;;;-144.51;100.00;69251.94;4996221;28;20042;-69
2021/08/05 12:32:05;;;;;;;0.15;0.10;;;;;;;-144.51;100.00;69251.94;4996442;28;20038;-69
2021/08/05 12:34:49;;;;;;;0.40;0.10;;;;;;;-144.51;100.00;69251.94;4998396;28;20042;-69
2021/08/05 12:37:34;;;;;;;0.13;0.13;;;;;;;-144.51;100.00;69251.94;4998407;28;20034;-69